Station Historical Data
Daily Summary for June 14, 2011 Units:  English    Metric   Both
« Previous Day
Next Day »
Daily Weekly Monthly Yearly Custom
  High: Low: Average:
Temperature: 82.9 °F 65.9 °F 70.5 °F
Dew Point: 68.7 °F 63.9 °F 66 °F
Humidity: 97% 58% 87%
Wind Speed: 8.0mph 0.0mph 1.2mph
Wind Gust: 8.0mph - -
Wind- - East
Pressure: 29.95 in 29.88 in -
Precipitation: 0.00 in    
Historical Graphs
 
 
Tabular Data for June 14, 2011
Time Temperature Dew Point Pressure Wind Wind Speed Wind Gust Humidity Rainfall Rate (Hourly) Conditions
00:00 73.5 °F 68.7 °F 29.91 in NE 1.0 mph 3.0 mph 85% 0.00 in
00:01 73.4 °F 68.6 °F 29.91 in NE 2.0 mph 3.0 mph 85% 0.00 in
00:07 73.4 °F 68.6 °F 29.91 in NE 1.0 mph 2.0 mph 85% 0.00 in
00:12 73.2 °F 68.4 °F 29.91 in Calm     85% 0.00 in
00:17 72.8 °F 68.4 °F 29.91 in Calm     86% 0.00 in
00:22 72.4 °F 68.3 °F 29.92 in Calm     87% 0.00 in
00:27 71.8 °F 68.1 °F 29.92 in Calm     88% 0.00 in
00:29 71.5 °F 68.1 °F 29.92 in Calm     89% 0.00 in
00:32 71.4 °F 68.0 °F 29.92 in Calm     89% 0.00 in
00:33 71.4 °F 68.0 °F 29.92 in Calm     89% 0.00 in
00:37 71.2 °F 67.8 °F 29.92 in NNW 1.0 mph 2.0 mph 89% 0.00 in
00:38 71.2 °F 67.8 °F 29.92 in NNW 1.0 mph 2.0 mph 89% 0.00 in
00:42 70.9 °F 67.8 °F 29.92 in Calm   1.0 mph 90% 0.00 in
00:46 70.7 °F 67.6 °F 29.91 in Calm     90% 0.00 in
00:48 70.5 °F 67.4 °F 29.91 in Calm     90% 0.00 in
00:51 70.5 °F 67.8 °F 29.91 in NNW 1.0 mph 1.0 mph 91% 0.00 in
00:56 70.7 °F 67.9 °F 29.92 in NNW 2.0 mph 2.0 mph 91% 0.00 in
01:01 70.6 °F 67.5 °F 29.91 in Calm   2.0 mph 90% 0.00 in
01:06 70.2 °F 67.1 °F 29.91 in Calm     90% 0.00 in
01:11 69.8 °F 67.4 °F 29.92 in Calm     92% 0.00 in
01:16 69.7 °F 67.3 °F 29.91 in Calm     92% 0.00 in
01:21 69.7 °F 67.3 °F 29.91 in Calm     92% 0.00 in
01:26 69.7 °F 67.3 °F 29.92 in Calm     92% 0.00 in
01:27 69.7 °F 67.3 °F 29.92 in Calm     92% 0.00 in
01:28 69.7 °F 67.3 °F 29.92 in Calm     92% 0.00 in
01:31 69.7 °F 67.3 °F 29.92 in Calm     92% 0.00 in
01:32 69.6 °F 67.2 °F 29.92 in Calm     92% 0.00 in
01:36 69.3 °F 66.9 °F 29.92 in Calm     92% 0.00 in
01:37 69.2 °F 66.8 °F 29.92 in Calm     92% 0.00 in
01:41 69.2 °F 67.1 °F 29.92 in Calm     93% 0.00 in
01:42 69.1 °F 67.0 °F 29.91 in Calm     93% 0.00 in
01:47 69.2 °F 67.1 °F 29.91 in Calm     93% 0.00 in
01:52 69.1 °F 67.0 °F 29.91 in Calm     93% 0.00 in
01:57 68.9 °F 66.8 °F 29.91 in Calm     93% 0.00 in
02:02 68.9 °F 66.8 °F 29.91 in Calm     93% 0.00 in
02:07 68.9 °F 66.8 °F 29.91 in Calm     93% 0.00 in
02:12 68.8 °F 66.7 °F 29.90 in Calm     93% 0.00 in
02:17 68.6 °F 66.5 °F 29.90 in Calm     93% 0.00 in
02:22 68.6 °F 66.8 °F 29.90 in Calm     94% 0.00 in
02:23 68.6 °F 66.8 °F 29.90 in Calm     94% 0.00 in
02:25 68.6 °F 66.8 °F 29.90 in Calm     94% 0.00 in
02:28 68.7 °F 66.9 °F 29.89 in Calm     94% 0.00 in
02:33 68.5 °F 66.7 °F 29.88 in Calm     94% 0.00 in
02:34 68.4 °F 66.6 °F 29.89 in Calm     94% 0.00 in
02:38 68.1 °F 66.3 °F 29.88 in Calm     94% 0.00 in
02:39 68.1 °F 66.6 °F 29.88 in Calm     95% 0.00 in
02:44 67.9 °F 66.4 °F 29.88 in Calm     95% 0.00 in
02:49 67.7 °F 66.2 °F 29.88 in Calm     95% 0.00 in
02:54 67.5 °F 66.0 °F 29.88 in Calm     95% 0.00 in
02:55 67.4 °F 65.9 °F 29.88 in Calm     95% 0.00 in
03:00 67.3 °F 65.8 °F 29.88 in Calm     95% 0.00 in
03:05 67.3 °F 66.1 °F 29.88 in Calm     96% 0.00 in
03:10 67.4 °F 66.2 °F 29.88 in NE 2.0 mph 2.0 mph 96% 0.00 in
03:15 67.5 °F 66.3 °F 29.89 in NNE 2.0 mph 3.0 mph 96% 0.00 in
03:20 67.7 °F 66.5 °F 29.89 in NNE 3.0 mph 3.0 mph 96% 0.00 in
03:21 67.7 °F 66.5 °F 29.89 in North 2.0 mph 3.0 mph 96% 0.00 in
03:22 67.7 °F 66.5 °F 29.90 in North 1.0 mph 3.0 mph 96% 0.00 in
03:26 67.5 °F 66.0 °F 29.90 in North 1.0 mph 2.0 mph 95% 0.00 in
03:27 67.5 °F 66.0 °F 29.90 in North 2.0 mph 2.0 mph 95% 0.00 in
03:30 67.4 °F 65.9 °F 29.91 in North 1.0 mph 2.0 mph 95% 0.00 in
03:33 67.3 °F 65.8 °F 29.90 in North 1.0 mph 1.0 mph 95% 0.00 in
03:38 67.1 °F 65.6 °F 29.91 in Calm   1.0 mph 95% 0.00 in
03:43 66.9 °F 65.4 °F 29.90 in North 1.0 mph 1.0 mph 95% 0.00 in
03:44 66.9 °F 65.7 °F 29.91 in North 1.0 mph 1.0 mph 96% 0.00 in
03:48 66.9 °F 65.7 °F 29.90 in North 1.0 mph 1.0 mph 96% 0.00 in
03:49 66.9 °F 65.7 °F 29.91 in North 1.0 mph 1.0 mph 96% 0.00 in
03:54 66.8 °F 65.6 °F 29.90 in Calm   1.0 mph 96% 0.00 in
03:59 66.6 °F 65.4 °F 29.91 in Calm     96% 0.00 in
04:04 66.5 °F 65.3 °F 29.90 in Calm     96% 0.00 in
04:09 66.3 °F 65.1 °F 29.90 in Calm     96% 0.00 in
04:14 66.4 °F 65.5 °F 29.91 in North 1.0 mph 1.0 mph 97% 0.00 in
04:18 66.5 °F 65.6 °F 29.91 in North 1.0 mph 1.0 mph 97% 0.00 in
04:21 66.5 °F 65.6 °F 29.91 in North 1.0 mph 1.0 mph 97% 0.00 in
04:23 66.5 °F 65.6 °F 29.91 in North 1.0 mph 1.0 mph 97% 0.00 in
04:26 66.3 °F 65.4 °F 29.91 in North 1.0 mph 1.0 mph 97% 0.00 in
04:27 66.3 °F 65.4 °F 29.91 in North 1.0 mph 1.0 mph 97% 0.00 in
04:28 66.2 °F 65.3 °F 29.91 in North 1.0 mph 1.0 mph 97% 0.00 in
04:32 66.1 °F 65.2 °F 29.91 in North 1.0 mph 1.0 mph 97% 0.00 in
04:34 66.1 °F 65.2 °F 29.91 in Calm   1.0 mph 97% 0.00 in
04:35 66.0 °F 65.1 °F 29.91 in Calm     97% 0.00 in
04:40 66.0 °F 65.1 °F 29.91 in North 1.0 mph 1.0 mph 97% 0.00 in
04:41 65.9 °F 65.0 °F 29.91 in North 1.0 mph 1.0 mph 97% 0.00 in
04:46 66.2 °F 65.3 °F 29.91 in Calm   1.0 mph 97% 0.00 in
04:51 66.4 °F 65.5 °F 29.91 in North 1.0 mph 1.0 mph 97% 0.00 in
04:56 66.5 °F 65.6 °F 29.91 in Calm   1.0 mph 97% 0.00 in
05:01 66.4 °F 65.5 °F 29.91 in North 1.0 mph 1.0 mph 97% 0.00 in
05:06 66.4 °F 65.2 °F 29.91 in Calm   1.0 mph 96% 0.00 in
05:11 66.4 °F 65.2 °F 29.91 in Calm   1.0 mph 96% 0.00 in
05:16 66.4 °F 65.2 °F 29.91 in Calm   1.0 mph 96% 0.00 in
05:21 66.4 °F 65.2 °F 29.91 in Calm   1.0 mph 96% 0.00 in
05:22 66.4 °F 65.2 °F 29.91 in Calm   1.0 mph 96% 0.00 in
05:26 66.6 °F 65.4 °F 29.91 in NNE 2.0 mph 2.0 mph 96% 0.00 in
05:27 66.7 °F 65.5 °F 29.91 in NNE 1.0 mph 2.0 mph 96% 0.00 in
05:28 66.7 °F 65.5 °F 29.91 in NNE 1.0 mph 2.0 mph 96% 0.00 in
05:32 66.9 °F 65.4 °F 29.91 in NNE 1.0 mph 2.0 mph 95% 0.00 in
05:33 67.0 °F 65.5 °F 29.91 in NNE 2.0 mph 2.0 mph 95% 0.00 in
05:38 67.3 °F 65.5 °F 29.91 in NNE 1.0 mph 3.0 mph 94% 0.00 in
05:43 67.4 °F 65.3 °F 29.91 in NNE 1.0 mph 2.0 mph 93% 0.00 in
05:44 67.4 °F 65.3 °F 29.91 in NNE 1.0 mph 2.0 mph 93% 0.00 in
05:45 67.4 °F 65.3 °F 29.91 in NNE 1.0 mph 2.0 mph 93% 0.00 in
05:49 67.3 °F 65.5 °F 29.91 in NNE 2.0 mph 2.0 mph 94% 0.00 in
05:54 67.1 °F 65.3 °F 29.91 in North 2.0 mph 2.0 mph 94% 0.00 in
05:59 66.9 °F 65.1 °F 29.91 in NNE 2.0 mph 2.0 mph 94% 0.00 in
06:04 66.9 °F 64.8 °F 29.91 in NNE 1.0 mph 2.0 mph 93% 0.00 in
06:09 66.8 °F 64.7 °F 29.91 in North 2.0 mph 2.0 mph 93% 0.00 in
06:14 66.9 °F 64.5 °F 29.91 in NNE 1.0 mph 2.0 mph 92% 0.00 in
06:19 66.8 °F 64.4 °F 29.91 in NNE 1.0 mph 2.0 mph 92% 0.00 in
06:24 66.9 °F 64.5 °F 29.92 in North 1.0 mph 2.0 mph 92% 0.00 in
06:30 66.7 °F 64.3 °F 29.92 in NNW 2.0 mph 2.0 mph 92% 0.00 in
06:33 66.5 °F 64.4 °F 29.92 in NNW 1.0 mph 1.0 mph 93% 0.00 in
06:35 66.4 °F 64.3 °F 29.92 in NNW 1.0 mph 1.0 mph 93% 0.00 in
06:40 66.3 °F 64.2 °F 29.92 in NNE 2.0 mph 2.0 mph 93% 0.00 in
06:45 66.3 °F 64.2 °F 29.92 in NE 1.0 mph 2.0 mph 93% 0.00 in
06:46 66.3 °F 64.2 °F 29.92 in NE 1.0 mph 2.0 mph 93% 0.00 in
06:52 66.5 °F 64.1 °F 29.92 in NNE 1.0 mph 2.0 mph 92% 0.00 in
06:57 66.5 °F 64.1 °F 29.92 in NNE 1.0 mph 1.0 mph 92% 0.00 in
06:58 66.5 °F 64.1 °F 29.92 in Calm   1.0 mph 92% 0.00 in
07:03 66.7 °F 64.0 °F 29.92 in NNE 2.0 mph 2.0 mph 91% 0.00 in
07:08 67.3 °F 64.3 °F 29.92 in NE 4.0 mph 4.0 mph 90% 0.00 in
07:13 67.6 °F 63.9 °F 29.93 in ENE 2.0 mph 3.0 mph 88% 0.00 in
07:18 67.9 °F 63.9 °F 29.93 in NNE 2.0 mph 2.0 mph 87% 0.00 in
07:23 68.1 °F 64.1 °F 29.93 in NNE 2.0 mph 2.0 mph 87% 0.00 in
07:28 68.4 °F 64.1 °F 29.93 in Calm   1.0 mph 86% 0.00 in
09:30 76.3 °F 65.4 °F 29.95 in SE 3.0 mph 4.0 mph 69% 0.00 in
09:31 76.4 °F 66.3 °F 29.95 in ESE 2.0 mph 4.0 mph 71% 0.00 in
09:36 76.6 °F 66.1 °F 29.95 in ESE 3.0 mph 4.0 mph 70% 0.00 in
09:38 76.7 °F 65.8 °F 29.95 in East 2.0 mph 4.0 mph 69% 0.00 in
09:43 77.0 °F 66.5 °F 29.95 in ESE 2.0 mph 3.0 mph 70% 0.00 in
09:48 77.5 °F 65.7 °F 29.94 in SE 4.0 mph 6.0 mph 67% 0.00 in
09:49 77.5 °F 65.7 °F 29.94 in SE 3.0 mph 6.0 mph 67% 0.00 in
09:54 77.6 °F 64.9 °F 29.95 in ESE 4.0 mph 4.0 mph 65% 0.00 in
09:59 78.2 °F 65.5 °F 29.95 in SE 2.0 mph 3.0 mph 65% 0.00 in
10:04 78.5 °F 65.8 °F 29.94 in SSE 3.0 mph 4.0 mph 65% 0.00 in
10:09 79.0 °F 65.8 °F 29.94 in SSE 5.0 mph 6.0 mph 64% 0.00 in
10:14 78.9 °F 64.8 °F 29.93 in SE 5.0 mph 7.0 mph 62% 0.00 in
10:20 78.9 °F 65.7 °F 29.93 in ESE 8.0 mph 8.0 mph 64% 0.00 in
10:26 79.3 °F 66.1 °F 29.92 in SE 7.0 mph 7.0 mph 64% 0.00 in
10:31 79.2 °F 65.1 °F 29.93 in SE 4.0 mph 8.0 mph 62% 0.00 in
10:36 79.6 °F 65.0 °F 29.93 in SSE 2.0 mph 5.0 mph 61% 0.00 in
10:38 79.9 °F 65.3 °F 29.93 in South 6.0 mph 6.0 mph 61% 0.00 in
10:39 80.1 °F 66.4 °F 29.93 in ESE 3.0 mph 6.0 mph 63% 0.00 in
10:40 80.3 °F 65.2 °F 29.93 in ESE 2.0 mph 6.0 mph 60% 0.00 in
10:43 80.5 °F 64.9 °F 29.93 in SSE 1.0 mph 4.0 mph 59% 0.00 in
10:45 80.6 °F 65.0 °F 29.93 in South 4.0 mph 5.0 mph 59% 0.00 in
10:50 81.1 °F 65.9 °F 29.93 in East 2.0 mph 4.0 mph 60% 0.00 in
10:55 81.2 °F 66.9 °F 29.93 in ESE 4.0 mph 4.0 mph 62% 0.00 in
11:00 81.2 °F 66.9 °F 29.94 in East 3.0 mph 4.0 mph 62% 0.00 in
11:05 81.2 °F 66.0 °F 29.93 in East 2.0 mph 6.0 mph 60% 0.00 in
11:10 81.0 °F 65.3 °F 29.94 in ENE 4.0 mph 6.0 mph 59% 0.00 in
11:15 81.0 °F 64.8 °F 29.94 in ENE 3.0 mph 5.0 mph 58% 0.00 in
11:20 81.1 °F 65.4 °F 29.95 in North 2.0 mph 3.0 mph 59% 0.00 in
11:25 81.7 °F 65.5 °F 29.94 in NE 3.0 mph 4.0 mph 58% 0.00 in
11:30 82.3 °F 66.1 °F 29.95 in ESE 1.0 mph 3.0 mph 58% 0.00 in
11:31 82.3 °F 66.1 °F 29.95 in East 1.0 mph 3.0 mph 58% 0.00 in
11:36 82.9 °F 66.6 °F 29.95 in North 3.0 mph 3.0 mph 58% 0.00 in
Compliments of Weather Underground